Terminal Aerodrome Forecast
Issued by NWS Houston/Galveston, TX

Home | Current Version | Previous Version | Text Only | Print | Product List | Glossary On
Versions: 1 2 3 4 5 6 7 8 9 10 11 12 13 14 15 16 17 18 19 20
000
FTUS44 KHGX 242334
TAFGLS
TAF
KGLS 242334Z 2500/2524 31012G19KT P6SM SKC
      TEMPO 2500/2501 15007KT
     FM250300 33014G24KT P6SM SKC
     FM251000 02015KT P6SM SKC
     FM252100 06008KT P6SM SKC=

USA.gov is the U.S. government's official web portal to all federal, state and local government web resources and services.